sensor_id;sensor_type;location;lat;lon;timestamp;P1;durP1;ratioP1;P2;durP2;ratioP2
7931;SDS011;4011;49.424;10.894;2023-04-03T00:04:08;3.10;;;1.75;;
7931;SDS011;4011;49.424;10.894;2023-04-03T00:09:31;2.92;;;1.80;;
7931;SDS011;4011;49.424;10.894;2023-04-03T00:14:52;2.97;;;1.70;;
7931;SDS011;4011;49.424;10.894;2023-04-03T00:20:14;3.30;;;1.80;;
7931;SDS011;4011;49.424;10.894;2023-04-03T00:25:37;3.35;;;1.70;;
7931;SDS011;4011;49.424;10.894;2023-04-03T00:30:58;2.30;;;1.60;;
7931;SDS011;4011;49.424;10.894;2023-04-03T00:36:20;3.22;;;1.75;;
7931;SDS011;4011;49.424;10.894;2023-04-03T00:41:42;2.53;;;1.70;;
7931;SDS011;4011;49.424;10.894;2023-04-03T00:47:05;2.53;;;1.67;;
7931;SDS011;4011;49.424;10.894;2023-04-03T00:52:28;2.75;;;1.60;;
7931;SDS011;4011;49.424;10.894;2023-04-03T00:57:52;2.50;;;1.70;;
7931;SDS011;4011;49.424;10.894;2023-04-03T01:03:19;2.72;;;1.60;;
7931;SDS011;4011;49.424;10.894;2023-04-03T01:08:45;2.90;;;1.60;;
7931;SDS011;4011;49.424;10.894;2023-04-03T01:14:14;2.47;;;1.67;;
7931;SDS011;4011;49.424;10.894;2023-04-03T01:19:41;2.80;;;1.67;;
7931;SDS011;4011;49.424;10.894;2023-04-03T01:25:06;2.53;;;1.70;;
7931;SDS011;4011;49.424;10.894;2023-04-03T01:30:33;2.65;;;1.70;;
7931;SDS011;4011;49.424;10.894;2023-04-03T01:35:57;2.42;;;1.58;;
7931;SDS011;4011;49.424;10.894;2023-04-03T01:41:19;2.70;;;1.70;;
7931;SDS011;4011;49.424;10.894;2023-04-03T01:46:41;3.63;;;2.00;;
7931;SDS011;4011;49.424;10.894;2023-04-03T01:52:04;2.33;;;1.55;;
7931;SDS011;4011;49.424;10.894;2023-04-03T01:57:26;2.78;;;1.70;;
7931;SDS011;4011;49.424;10.894;2023-04-03T02:02:47;2.47;;;1.50;;
7931;SDS011;4011;49.424;10.894;2023-04-03T02:08:10;1.92;;;1.45;;
7931;SDS011;4011;49.424;10.894;2023-04-03T02:13:33;2.85;;;1.90;;
7931;SDS011;4011;49.424;10.894;2023-04-03T02:18:54;2.25;;;1.50;;
7931;SDS011;4011;49.424;10.894;2023-04-03T02:24:17;2.70;;;1.80;;
7931;SDS011;4011;49.424;10.894;2023-04-03T02:29:39;2.30;;;1.55;;
7931;SDS011;4011;49.424;10.894;2023-04-03T02:35:00;2.35;;;1.58;;
7931;SDS011;4011;49.424;10.894;2023-04-03T02:40:23;2.60;;;1.60;;
7931;SDS011;4011;49.424;10.894;2023-04-03T02:45:44;2.78;;;1.73;;
7931;SDS011;4011;49.424;10.894;2023-04-03T02:51:06;3.13;;;1.90;;
7931;SDS011;4011;49.424;10.894;2023-04-03T02:56:31;2.40;;;1.60;;
7931;SDS011;4011;49.424;10.894;2023-04-03T03:01:57;2.67;;;1.65;;
7931;SDS011;4011;49.424;10.894;2023-04-03T03:07:29;2.25;;;1.52;;
7931;SDS011;4011;49.424;10.894;2023-04-03T03:13:01;2.50;;;1.65;;
7931;SDS011;4011;49.424;10.894;2023-04-03T03:18:22;2.75;;;1.63;;
7931;SDS011;4011;49.424;10.894;2023-04-03T03:23:44;2.55;;;1.60;;
7931;SDS011;4011;49.424;10.894;2023-04-03T03:29:07;2.30;;;1.60;;
7931;SDS011;4011;49.424;10.894;2023-04-03T03:34:29;3.10;;;1.65;;
7931;SDS011;4011;49.424;10.894;2023-04-03T03:39:50;2.90;;;1.83;;
7931;SDS011;4011;49.424;10.894;2023-04-03T03:45:14;2.53;;;1.70;;
7931;SDS011;4011;49.424;10.894;2023-04-03T03:50:35;2.40;;;1.55;;
7931;SDS011;4011;49.424;10.894;2023-04-03T03:55:57;2.60;;;1.70;;
7931;SDS011;4011;49.424;10.894;2023-04-03T04:01:20;2.42;;;1.52;;
7931;SDS011;4011;49.424;10.894;2023-04-03T04:06:42;2.72;;;1.67;;
7931;SDS011;4011;49.424;10.894;2023-04-03T04:12:03;2.28;;;1.60;;
7931;SDS011;4011;49.424;10.894;2023-04-03T04:17:26;2.60;;;1.60;;
7931;SDS011;4011;49.424;10.894;2023-04-03T04:22:48;2.70;;;1.60;;
7931;SDS011;4011;49.424;10.894;2023-04-03T04:28:12;2.58;;;1.70;;
7931;SDS011;4011;49.424;10.894;2023-04-03T04:33:35;3.40;;;1.80;;
7931;SDS011;4011;49.424;10.894;2023-04-03T04:38:57;2.40;;;1.42;;
7931;SDS011;4011;49.424;10.894;2023-04-03T04:44:19;2.97;;;1.60;;
7931;SDS011;4011;49.424;10.894;2023-04-03T04:49:43;3.60;;;1.90;;
7931;SDS011;4011;49.424;10.894;2023-04-03T04:55:11;2.83;;;1.60;;
7931;SDS011;4011;49.424;10.894;2023-04-03T05:00:32;6.10;;;2.00;;
7931;SDS011;4011;49.424;10.894;2023-04-03T05:05:55;3.13;;;1.65;;
7931;SDS011;4011;49.424;10.894;2023-04-03T05:11:17;2.90;;;1.70;;
7931;SDS011;4011;49.424;10.894;2023-04-03T05:16:38;4.38;;;1.92;;
7931;SDS011;4011;49.424;10.894;2023-04-03T05:22:01;3.10;;;2.00;;
7931;SDS011;4011;49.424;10.894;2023-04-03T05:27:23;2.45;;;1.60;;
7931;SDS011;4011;49.424;10.894;2023-04-03T05:32:45;3.10;;;1.70;;
7931;SDS011;4011;49.424;10.894;2023-04-03T05:38:08;2.67;;;1.63;;
7931;SDS011;4011;49.424;10.894;2023-04-03T05:43:29;3.30;;;1.70;;
7931;SDS011;4011;49.424;10.894;2023-04-03T05:48:51;2.80;;;1.80;;
7931;SDS011;4011;49.424;10.894;2023-04-03T05:54:16;4.18;;;1.80;;
7931;SDS011;4011;49.424;10.894;2023-04-03T05:59:38;4.22;;;2.08;;
7931;SDS011;4011;49.424;10.894;2023-04-03T06:05:00;3.35;;;1.88;;
7931;SDS011;4011;49.424;10.894;2023-04-03T06:10:23;3.85;;;1.85;;
7931;SDS011;4011;49.424;10.894;2023-04-03T06:15:44;3.80;;;1.83;;
7931;SDS011;4011;49.424;10.894;2023-04-03T06:21:06;3.80;;;1.90;;
7931;SDS011;4011;49.424;10.894;2023-04-03T06:26:29;3.40;;;1.75;;
7931;SDS011;4011;49.424;10.894;2023-04-03T06:31:51;3.38;;;1.80;;
7931;SDS011;4011;49.424;10.894;2023-04-03T06:37:14;3.40;;;1.80;;
7931;SDS011;4011;49.424;10.894;2023-04-03T06:42:38;2.72;;;1.70;;
7931;SDS011;4011;49.424;10.894;2023-04-03T06:47:59;4.10;;;2.20;;
7931;SDS011;4011;49.424;10.894;2023-04-03T06:53:21;3.60;;;1.80;;
7931;SDS011;4011;49.424;10.894;2023-04-03T06:58:44;3.53;;;1.70;;
7931;SDS011;4011;49.424;10.894;2023-04-03T07:04:06;3.42;;;1.92;;
7931;SDS011;4011;49.424;10.894;2023-04-03T07:09:31;2.97;;;1.63;;
7931;SDS011;4011;49.424;10.894;2023-04-03T07:14:54;4.28;;;1.70;;
7931;SDS011;4011;49.424;10.894;2023-04-03T07:20:16;3.30;;;1.80;;
7931;SDS011;4011;49.424;10.894;2023-04-03T07:25:41;3.95;;;1.90;;
7931;SDS011;4011;49.424;10.894;2023-04-03T07:31:05;3.00;;;1.70;;
7931;SDS011;4011;49.424;10.894;2023-04-03T07:36:28;4.13;;;2.00;;
7931;SDS011;4011;49.424;10.894;2023-04-03T07:41:53;4.95;;;2.40;;
7931;SDS011;4011;49.424;10.894;2023-04-03T07:47:18;3.67;;;1.80;;
7931;SDS011;4011;49.424;10.894;2023-04-03T07:52:40;3.60;;;1.92;;
7931;SDS011;4011;49.424;10.894;2023-04-03T07:58:02;3.08;;;1.70;;
7931;SDS011;4011;49.424;10.894;2023-04-03T08:03:25;3.15;;;2.00;;
7931;SDS011;4011;49.424;10.894;2023-04-03T08:08:47;4.38;;;2.20;;
7931;SDS011;4011;49.424;10.894;2023-04-03T08:14:08;4.70;;;2.22;;
7931;SDS011;4011;49.424;10.894;2023-04-03T08:19:36;4.72;;;2.00;;
7931;SDS011;4011;49.424;10.894;2023-04-03T08:24:58;3.20;;;2.10;;
7931;SDS011;4011;49.424;10.894;2023-04-03T08:30:21;3.28;;;1.85;;
7931;SDS011;4011;49.424;10.894;2023-04-03T08:35:44;3.90;;;2.00;;
7931;SDS011;4011;49.424;10.894;2023-04-03T08:41:10;3.28;;;1.85;;
7931;SDS011;4011;49.424;10.894;2023-04-03T08:46:37;3.45;;;1.92;;
7931;SDS011;4011;49.424;10.894;2023-04-03T08:52:02;4.07;;;1.80;;
7931;SDS011;4011;49.424;10.894;2023-04-03T08:57:29;3.30;;;1.83;;
7931;SDS011;4011;49.424;10.894;2023-04-03T09:02:51;2.88;;;1.77;;
7931;SDS011;4011;49.424;10.894;2023-04-03T09:08:17;4.38;;;2.08;;
7931;SDS011;4011;49.424;10.894;2023-04-03T09:13:44;3.08;;;1.90;;
7931;SDS011;4011;49.424;10.894;2023-04-03T09:19:09;3.10;;;1.85;;
7931;SDS011;4011;49.424;10.894;2023-04-03T09:24:34;3.05;;;1.98;;
7931;SDS011;4011;49.424;10.894;2023-04-03T09:29:57;3.75;;;1.90;;
7931;SDS011;4011;49.424;10.894;2023-04-03T09:35:20;3.25;;;1.90;;
7931;SDS011;4011;49.424;10.894;2023-04-03T09:40:44;3.47;;;1.80;;
7931;SDS011;4011;49.424;10.894;2023-04-03T09:46:16;3.38;;;2.05;;
7931;SDS011;4011;49.424;10.894;2023-04-03T09:51:40;3.70;;;2.10;;
7931;SDS011;4011;49.424;10.894;2023-04-03T09:57:06;3.53;;;1.90;;
7931;SDS011;4011;49.424;10.894;2023-04-03T10:02:31;3.13;;;1.90;;
7931;SDS011;4011;49.424;10.894;2023-04-03T10:08:06;2.92;;;1.83;;
7931;SDS011;4011;49.424;10.894;2023-04-03T10:13:29;2.80;;;1.70;;
7931;SDS011;4011;49.424;10.894;2023-04-03T10:18:54;2.78;;;1.70;;
7931;SDS011;4011;49.424;10.894;2023-04-03T10:24:19;4.15;;;1.90;;
7931;SDS011;4011;49.424;10.894;2023-04-03T10:29:47;3.92;;;2.05;;
7931;SDS011;4011;49.424;10.894;2023-04-03T10:35:16;3.33;;;1.90;;
7931;SDS011;4011;49.424;10.894;2023-04-03T10:40:45;3.50;;;1.83;;
7931;SDS011;4011;49.424;10.894;2023-04-03T10:46:11;3.38;;;1.95;;
7931;SDS011;4011;49.424;10.894;2023-04-03T10:51:34;2.88;;;1.70;;
7931;SDS011;4011;49.424;10.894;2023-04-03T10:57:00;2.78;;;1.70;;
7931;SDS011;4011;49.424;10.894;2023-04-03T11:02:25;3.25;;;1.80;;
7931;SDS011;4011;49.424;10.894;2023-04-03T11:07:47;2.53;;;1.70;;
7931;SDS011;4011;49.424;10.894;2023-04-03T11:13:11;3.38;;;1.90;;
7931;SDS011;4011;49.424;10.894;2023-04-03T11:18:37;3.28;;;1.70;;
7931;SDS011;4011;49.424;10.894;2023-04-03T11:24:01;3.28;;;1.80;;
7931;SDS011;4011;49.424;10.894;2023-04-03T11:29:24;4.13;;;1.90;;
7931;SDS011;4011;49.424;10.894;2023-04-03T11:34:50;3.20;;;1.98;;
7931;SDS011;4011;49.424;10.894;2023-04-03T11:40:20;3.40;;;2.00;;
7931;SDS011;4011;49.424;10.894;2023-04-03T11:45:56;3.55;;;1.90;;
7931;SDS011;4011;49.424;10.894;2023-04-03T11:51:40;2.40;;;1.83;;
7931;SDS011;4011;49.424;10.894;2023-04-03T11:57:10;4.10;;;2.08;;
7931;SDS011;4011;49.424;10.894;2023-04-03T12:02:43;3.47;;;1.95;;
7931;SDS011;4011;49.424;10.894;2023-04-03T12:08:25;3.58;;;2.00;;
7931;SDS011;4011;49.424;10.894;2023-04-03T12:14:01;4.75;;;2.20;;
7931;SDS011;4011;49.424;10.894;2023-04-03T12:19:28;3.67;;;2.03;;
7931;SDS011;4011;49.424;10.894;2023-04-03T12:24:52;3.47;;;1.80;;
7931;SDS011;4011;49.424;10.894;2023-04-03T12:30:16;4.03;;;2.10;;
7931;SDS011;4011;49.424;10.894;2023-04-03T12:35:43;3.47;;;2.03;;
7931;SDS011;4011;49.424;10.894;2023-04-03T12:41:14;3.65;;;1.85;;
7931;SDS011;4011;49.424;10.894;2023-04-03T12:46:39;3.50;;;2.15;;
7931;SDS011;4011;49.424;10.894;2023-04-03T12:52:04;3.65;;;2.13;;
7931;SDS011;4011;49.424;10.894;2023-04-03T12:57:28;3.67;;;2.10;;
7931;SDS011;4011;49.424;10.894;2023-04-03T13:02:50;3.53;;;2.20;;
7931;SDS011;4011;49.424;10.894;2023-04-03T13:08:12;4.47;;;2.00;;
7931;SDS011;4011;49.424;10.894;2023-04-03T13:13:40;3.47;;;1.90;;
7931;SDS011;4011;49.424;10.894;2023-04-03T13:19:18;3.83;;;1.90;;
7931;SDS011;4011;49.424;10.894;2023-04-03T13:24:44;3.28;;;2.00;;
7931;SDS011;4011;49.424;10.894;2023-04-03T13:30:18;3.15;;;1.90;;
7931;SDS011;4011;49.424;10.894;2023-04-03T13:35:41;4.38;;;2.08;;
7931;SDS011;4011;49.424;10.894;2023-04-03T13:41:21;3.85;;;1.90;;
7931;SDS011;4011;49.424;10.894;2023-04-03T13:46:45;3.97;;;2.10;;
7931;SDS011;4011;49.424;10.894;2023-04-03T13:52:20;4.15;;;2.10;;
7931;SDS011;4011;49.424;10.894;2023-04-03T13:57:54;3.28;;;2.00;;
7931;SDS011;4011;49.424;10.894;2023-04-03T14:03:23;3.50;;;2.30;;
7931;SDS011;4011;49.424;10.894;2023-04-03T14:08:47;2.90;;;1.90;;
7931;SDS011;4011;49.424;10.894;2023-04-03T14:19:57;3.45;;;2.00;;
7931;SDS011;4011;49.424;10.894;2023-04-03T14:25:21;3.40;;;1.92;;
7931;SDS011;4011;49.424;10.894;2023-04-03T14:30:45;3.20;;;1.88;;
7931;SDS011;4011;49.424;10.894;2023-04-03T14:36:12;3.30;;;2.00;;
7931;SDS011;4011;49.424;10.894;2023-04-03T14:41:35;3.15;;;2.00;;
7931;SDS011;4011;49.424;10.894;2023-04-03T14:47:19;3.03;;;1.92;;
7931;SDS011;4011;49.424;10.894;2023-04-03T14:53:02;3.33;;;1.88;;
7931;SDS011;4011;49.424;10.894;2023-04-03T14:58:37;3.35;;;1.80;;
7931;SDS011;4011;49.424;10.894;2023-04-03T15:04:08;3.58;;;1.73;;
7931;SDS011;4011;49.424;10.894;2023-04-03T15:09:43;3.03;;;1.85;;
7931;SDS011;4011;49.424;10.894;2023-04-03T15:15:13;2.53;;;1.63;;
7931;SDS011;4011;49.424;10.894;2023-04-03T15:20:51;3.28;;;1.75;;
7931;SDS011;4011;49.424;10.894;2023-04-03T15:26:17;3.78;;;1.95;;
7931;SDS011;4011;49.424;10.894;2023-04-03T15:31:44;6.70;;;3.67;;
7931;SDS011;4011;49.424;10.894;2023-04-03T15:37:11;8.57;;;4.22;;
7931;SDS011;4011;49.424;10.894;2023-04-03T15:42:35;9.52;;;4.25;;
7931;SDS011;4011;49.424;10.894;2023-04-03T15:48:02;8.20;;;4.55;;
7931;SDS011;4011;49.424;10.894;2023-04-03T15:53:24;5.90;;;3.70;;
7931;SDS011;4011;49.424;10.894;2023-04-03T15:58:52;5.85;;;3.60;;
7931;SDS011;4011;49.424;10.894;2023-04-03T16:04:17;7.30;;;3.13;;
7931;SDS011;4011;49.424;10.894;2023-04-03T16:09:42;7.20;;;3.47;;
7931;SDS011;4011;49.424;10.894;2023-04-03T16:15:10;4.72;;;2.90;;
7931;SDS011;4011;49.424;10.894;2023-04-03T16:20:33;7.18;;;3.00;;
7931;SDS011;4011;49.424;10.894;2023-04-03T16:26:01;6.80;;;2.85;;
7931;SDS011;4011;49.424;10.894;2023-04-03T16:31:25;5.05;;;2.67;;
7931;SDS011;4011;49.424;10.894;2023-04-03T16:36:48;4.97;;;2.50;;
7931;SDS011;4011;49.424;10.894;2023-04-03T16:42:11;4.20;;;2.45;;
7931;SDS011;4011;49.424;10.894;2023-04-03T16:47:34;4.22;;;2.25;;
7931;SDS011;4011;49.424;10.894;2023-04-03T16:52:55;4.00;;;2.10;;
7931;SDS011;4011;49.424;10.894;2023-04-03T16:58:17;3.95;;;2.10;;
7931;SDS011;4011;49.424;10.894;2023-04-03T17:03:41;4.35;;;2.40;;
7931;SDS011;4011;49.424;10.894;2023-04-03T17:09:02;4.40;;;2.38;;
7931;SDS011;4011;49.424;10.894;2023-04-03T17:14:24;4.30;;;2.00;;
7931;SDS011;4011;49.424;10.894;2023-04-03T17:19:50;4.72;;;2.20;;
7931;SDS011;4011;49.424;10.894;2023-04-03T17:25:20;3.55;;;2.00;;
7931;SDS011;4011;49.424;10.894;2023-04-03T17:30:41;4.70;;;2.40;;
7931;SDS011;4011;49.424;10.894;2023-04-03T17:36:05;3.55;;;2.00;;
7931;SDS011;4011;49.424;10.894;2023-04-03T17:41:27;4.10;;;2.10;;
7931;SDS011;4011;49.424;10.894;2023-04-03T17:46:48;3.75;;;1.85;;
7931;SDS011;4011;49.424;10.894;2023-04-03T17:52:20;4.38;;;2.28;;
7931;SDS011;4011;49.424;10.894;2023-04-03T17:57:47;4.47;;;2.15;;
7931;SDS011;4011;49.424;10.894;2023-04-03T18:03:11;3.53;;;2.00;;
7931;SDS011;4011;49.424;10.894;2023-04-03T18:08:56;3.88;;;2.00;;
7931;SDS011;4011;49.424;10.894;2023-04-03T18:14:25;3.10;;;1.58;;
7931;SDS011;4011;49.424;10.894;2023-04-03T18:19:47;3.00;;;1.80;;
7931;SDS011;4011;49.424;10.894;2023-04-03T18:25:12;3.15;;;1.77;;
7931;SDS011;4011;49.424;10.894;2023-04-03T18:30:35;2.72;;;1.80;;
7931;SDS011;4011;49.424;10.894;2023-04-03T18:35:57;2.97;;;1.75;;
7931;SDS011;4011;49.424;10.894;2023-04-03T18:41:20;3.33;;;1.60;;
7931;SDS011;4011;49.424;10.894;2023-04-03T18:46:43;2.55;;;1.70;;
7931;SDS011;4011;49.424;10.894;2023-04-03T18:52:22;3.30;;;1.80;;
7931;SDS011;4011;49.424;10.894;2023-04-03T18:57:53;3.97;;;1.90;;
7931;SDS011;4011;49.424;10.894;2023-04-03T19:03:26;3.90;;;1.80;;
7931;SDS011;4011;49.424;10.894;2023-04-03T19:08:51;2.72;;;1.70;;
7931;SDS011;4011;49.424;10.894;2023-04-03T19:14:14;3.78;;;1.70;;
7931;SDS011;4011;49.424;10.894;2023-04-03T19:19:36;2.50;;;1.50;;
7931;SDS011;4011;49.424;10.894;2023-04-03T19:24:58;3.72;;;1.70;;
7931;SDS011;4011;49.424;10.894;2023-04-03T19:30:21;3.00;;;1.70;;
7931;SDS011;4011;49.424;10.894;2023-04-03T19:35:43;3.38;;;1.83;;
7931;SDS011;4011;49.424;10.894;2023-04-03T19:41:05;3.22;;;1.80;;
7931;SDS011;4011;49.424;10.894;2023-04-03T19:46:29;3.45;;;1.90;;
7931;SDS011;4011;49.424;10.894;2023-04-03T19:51:50;2.60;;;1.48;;
7931;SDS011;4011;49.424;10.894;2023-04-03T19:57:12;2.65;;;1.60;;
7931;SDS011;4011;49.424;10.894;2023-04-03T20:02:35;3.30;;;1.70;;
7931;SDS011;4011;49.424;10.894;2023-04-03T20:07:57;3.20;;;1.75;;
7931;SDS011;4011;49.424;10.894;2023-04-03T20:13:18;3.53;;;1.80;;
7931;SDS011;4011;49.424;10.894;2023-04-03T20:18:41;3.42;;;2.00;;
7931;SDS011;4011;49.424;10.894;2023-04-03T20:24:04;3.55;;;1.80;;
7931;SDS011;4011;49.424;10.894;2023-04-03T20:29:26;2.72;;;1.90;;
7931;SDS011;4011;49.424;10.894;2023-04-03T20:34:50;2.67;;;1.77;;
7931;SDS011;4011;49.424;10.894;2023-04-03T20:40:12;3.08;;;1.80;;
7931;SDS011;4011;49.424;10.894;2023-04-03T20:45:34;2.85;;;1.70;;
7931;SDS011;4011;49.424;10.894;2023-04-03T20:50:57;3.03;;;1.65;;
7931;SDS011;4011;49.424;10.894;2023-04-03T20:56:24;3.13;;;1.70;;
7931;SDS011;4011;49.424;10.894;2023-04-03T21:01:51;3.00;;;1.65;;
7931;SDS011;4011;49.424;10.894;2023-04-03T21:24:26;4.57;;;1.80;;
7931;SDS011;4011;49.424;10.894;2023-04-03T21:29:48;3.17;;;1.70;;
7931;SDS011;4011;49.424;10.894;2023-04-03T21:35:10;4.05;;;1.83;;
7931;SDS011;4011;49.424;10.894;2023-04-03T21:40:32;4.07;;;1.73;;
7931;SDS011;4011;49.424;10.894;2023-04-03T21:45:54;3.20;;;1.70;;
7931;SDS011;4011;49.424;10.894;2023-04-03T21:51:17;5.32;;;2.03;;
7931;SDS011;4011;49.424;10.894;2023-04-03T21:56:39;3.30;;;1.80;;
7931;SDS011;4011;49.424;10.894;2023-04-03T22:02:00;4.72;;;1.90;;
7931;SDS011;4011;49.424;10.894;2023-04-03T22:07:23;3.20;;;1.75;;
7931;SDS011;4011;49.424;10.894;2023-04-03T22:12:45;2.92;;;1.70;;
7931;SDS011;4011;49.424;10.894;2023-04-03T22:18:07;3.00;;;1.65;;
7931;SDS011;4011;49.424;10.894;2023-04-03T22:23:30;3.90;;;1.73;;
7931;SDS011;4011;49.424;10.894;2023-04-03T22:28:52;2.67;;;1.65;;
7931;SDS011;4011;49.424;10.894;2023-04-03T22:34:13;4.10;;;2.00;;
7931;SDS011;4011;49.424;10.894;2023-04-03T22:39:37;3.40;;;1.90;;
7931;SDS011;4011;49.424;10.894;2023-04-03T22:44:58;3.45;;;1.90;;
7931;SDS011;4011;49.424;10.894;2023-04-03T22:50:20;4.18;;;2.20;;
7931;SDS011;4011;49.424;10.894;2023-04-03T22:55:43;3.20;;;1.77;;
7931;SDS011;4011;49.424;10.894;2023-04-03T23:01:05;3.47;;;1.88;;
7931;SDS011;4011;49.424;10.894;2023-04-03T23:06:27;3.10;;;1.70;;
7931;SDS011;4011;49.424;10.894;2023-04-03T23:11:52;3.80;;;1.95;;
7931;SDS011;4011;49.424;10.894;2023-04-03T23:17:13;3.63;;;1.80;;
7931;SDS011;4011;49.424;10.894;2023-04-03T23:22:34;3.40;;;1.70;;
7931;SDS011;4011;49.424;10.894;2023-04-03T23:27:57;3.22;;;1.70;;
7931;SDS011;4011;49.424;10.894;2023-04-03T23:33:19;3.28;;;1.90;;
7931;SDS011;4011;49.424;10.894;2023-04-03T23:38:40;2.80;;;1.60;;
7931;SDS011;4011;49.424;10.894;2023-04-03T23:44:03;3.05;;;1.77;;
7931;SDS011;4011;49.424;10.894;2023-04-03T23:49:25;3.22;;;1.60;;
7931;SDS011;4011;49.424;10.894;2023-04-03T23:54:46;2.95;;;1.55;;
